Time;durP1;ratioP1;P1;durP2;ratioP2;P2;SDS_P1;SDS_P2;PMS_P1;PMS_P2;Temp;Humidity;BMP_temperature;BMP_pressure;BME280_temperature;BME280_humidity;BME280_pressure;Samples;Min_cycle;Max_cycle;Signal;HPM_P1;HPM_P2
2021/10/23 00:01:14;;;;;;;7.72;3.00;;;9.80;99.90;;;;;;5088530;28;20506;-71
2021/10/23 00:03:41;;;;;;;6.60;2.97;;;9.80;99.90;;;;;;5090277;28;20404;-71
2021/10/23 00:06:08;;;;;;;8.02;3.95;;;9.90;99.90;;;;;;5062782;28;20088;-71
2021/10/23 00:08:37;;;;;;;4.82;3.40;;;9.90;99.90;;;;;;5097523;28;20474;-70
2021/10/23 00:11:04;;;;;;;6.22;3.35;;;9.80;99.90;;;;;;5095784;28;20074;-72
2021/10/23 00:13:31;;;;;;;5.72;3.15;;;9.80;99.90;;;;;;5089727;28;20044;-72
2021/10/23 00:15:58;;;;;;;3.80;2.72;;;9.90;99.90;;;;;;5089337;28;20495;-71
2021/10/23 00:18:25;;;;;;;4.30;2.92;;;9.90;99.90;;;;;;5090099;28;20059;-71
2021/10/23 00:20:52;;;;;;;4.78;3.40;;;9.90;99.90;;;;;;5072003;28;20052;-71
2021/10/23 00:23:19;;;;;;;8.43;3.38;;;9.90;99.90;;;;;;5088899;28;20048;-71
2021/10/23 00:25:51;;;;;;;3.67;2.53;;;9.90;99.90;;;;;;5056991;28;20046;-71
2021/10/23 00:28:18;;;;;;;5.60;3.13;;;9.90;99.80;;;;;;5089843;28;20066;-71
2021/10/23 00:30:45;;;;;;;5.03;2.72;;;9.90;99.90;;;;;;5088883;28;20129;-71
2021/10/23 00:33:12;;;;;;;5.82;2.33;;;9.90;99.80;;;;;;5089830;28;20151;-71
2021/10/23 00:35:39;;;;;;;5.15;2.78;;;9.80;99.90;;;;;;5088508;28;20048;-71
2021/10/23 00:38:06;;;;;;;5.25;2.92;;;9.90;99.90;;;;;;5089810;28;20446;-70
2021/10/23 00:40:33;;;;;;;4.53;3.10;;;9.80;99.90;;;;;;5088419;28;20415;-71
2021/10/23 00:43:01;;;;;;;4.75;3.00;;;9.80;99.90;;;;;;5089836;28;20400;-71
2021/10/23 00:45:28;;;;;;;5.82;2.70;;;9.80;99.90;;;;;;5090042;28;20049;-70
2021/10/23 00:47:55;;;;;;;3.42;2.38;;;9.80;99.90;;;;;;5088504;28;20050;-71
2021/10/23 00:50:22;;;;;;;7.60;3.13;;;9.80;99.90;;;;;;5079957;28;20484;-71
2021/10/23 00:52:50;;;;;;;4.10;2.83;;;9.70;99.90;;;;;;5078765;28;20167;-71
2021/10/23 00:55:17;;;;;;;6.07;3.25;;;9.70;99.90;;;;;;5082551;28;20052;-71
2021/10/23 00:57:44;;;;;;;5.50;2.60;;;9.80;99.90;;;;;;5088402;28;20040;-70
2021/10/23 01:00:11;;;;;;;5.28;2.63;;;9.70;99.90;;;;;;5089322;28;20464;-70
2021/10/23 01:02:38;;;;;;;6.20;3.30;;;9.80;99.90;;;;;;5051536;28;20147;-70
2021/10/23 01:05:06;;;;;;;5.53;2.47;;;9.70;99.90;;;;;;5068700;28;20146;-71
2021/10/23 01:07:33;;;;;;;5.03;3.13;;;9.70;99.90;;;;;;5055522;28;20060;-71
2021/10/23 01:10:01;;;;;;;4.88;2.50;;;9.70;99.90;;;;;;5071516;28;20044;-71
2021/10/23 01:12:28;;;;;;;5.90;2.90;;;9.70;99.90;;;;;;5072573;28;20047;-70
2021/10/23 01:14:55;;;;;;;4.07;2.55;;;9.70;99.90;;;;;;5092998;28;20123;-71
2021/10/23 01:17:22;;;;;;;2.78;2.22;;;9.60;99.90;;;;;;5075157;28;20056;-70
2021/10/23 01:19:53;;;;;;;3.72;2.60;;;9.60;99.90;;;;;;5092225;28;20462;-71
2021/10/23 01:22:29;;;;;;;4.85;2.55;;;9.50;99.90;;;;;;5075908;28;20071;-70
2021/10/23 01:24:56;;;;;;;6.80;2.85;;;9.50;99.90;;;;;;5092955;28;20048;-71
2021/10/23 01:27:24;;;;;;;5.25;2.80;;;9.50;99.90;;;;;;5071608;28;20055;-70
2021/10/23 01:29:50;;;;;;;5.75;2.63;;;9.50;99.90;;;;;;5091744;28;20048;-71
2021/10/23 01:32:17;;;;;;;6.03;2.88;;;9.50;99.90;;;;;;5093397;28;20044;-70
2021/10/23 01:34:44;;;;;;;5.13;2.97;;;9.50;99.90;;;;;;5073074;28;20072;-70
2021/10/23 01:37:13;;;;;;;4.38;2.75;;;9.50;99.90;;;;;;5088535;28;20041;-71
2021/10/23 01:39:41;;;;;;;5.10;2.97;;;9.50;99.90;;;;;;5076597;28;20047;-70
2021/10/23 01:42:08;;;;;;;8.25;3.17;;;9.50;99.90;;;;;;5092458;28;20044;-71
2021/10/23 01:44:35;;;;;;;3.47;2.53;;;9.50;99.90;;;;;;5092999;28;20052;-71
2021/10/23 01:47:06;;;;;;;7.00;2.97;;;9.50;99.90;;;;;;5093151;28;20742;-71
2021/10/23 01:49:33;;;;;;;9.85;3.35;;;9.50;99.90;;;;;;5074642;28;20056;-71
2021/10/23 01:52:01;;;;;;;4.72;2.28;;;9.50;99.90;;;;;;5091784;28;20040;-71
2021/10/23 01:54:28;;;;;;;4.55;2.65;;;9.50;99.90;;;;;;5092372;28;20159;-71
2021/10/23 01:56:55;;;;;;;6.53;2.60;;;9.50;99.90;;;;;;5092955;28;20044;-71
2021/10/23 01:59:22;;;;;;;5.35;2.85;;;9.50;99.90;;;;;;5098698;28;20048;-70
2021/10/23 02:01:49;;;;;;;3.40;2.65;;;9.60;99.90;;;;;;5091251;28;20040;-72
2021/10/23 02:04:16;;;;;;;45.25;31.92;;;9.60;99.90;;;;;;5092819;28;20044;-71
2021/10/23 02:06:43;;;;;;;7.82;4.75;;;9.60;99.90;;;;;;5095085;28;20059;-70
2021/10/23 02:09:13;;;;;;;5.63;2.90;;;9.60;99.90;;;;;;5092331;28;20081;-71
2021/10/23 02:11:40;;;;;;;7.38;2.80;;;9.60;99.90;;;;;;5091406;28;20044;-70
2021/10/23 02:14:07;;;;;;;7.47;2.67;;;9.60;99.90;;;;;;5092781;28;20047;-71
2021/10/23 02:16:34;;;;;;;6.88;2.50;;;9.60;99.90;;;;;;5092421;28;20051;-70
2021/10/23 02:19:01;;;;;;;8.23;3.83;;;9.50;99.90;;;;;;5090542;28;20052;-71
2021/10/23 02:21:28;;;;;;;4.18;2.67;;;9.50;99.90;;;;;;5092338;28;20492;-70
2021/10/23 02:23:55;;;;;;;5.05;2.58;;;9.50;99.90;;;;;;5092739;28;20051;-71
2021/10/23 02:26:22;;;;;;;6.28;2.78;;;9.50;99.90;;;;;;5091361;28;20048;-72
2021/10/23 02:28:49;;;;;;;4.57;2.53;;;9.50;99.90;;;;;;5092516;28;20488;-72
2021/10/23 02:31:16;;;;;;;3.88;2.70;;;9.60;99.90;;;;;;5090782;28;20047;-70
2021/10/23 02:33:44;;;;;;;6.25;3.15;;;9.50;99.90;;;;;;5090761;28;20076;-70
2021/10/23 02:36:12;;;;;;;5.70;2.22;;;9.50;99.90;;;;;;5091832;28;20104;-70
2021/10/23 02:38:39;;;;;;;4.97;2.80;;;9.50;99.90;;;;;;5092054;28;20478;-71
2021/10/23 02:41:06;;;;;;;4.78;2.78;;;9.50;99.90;;;;;;5074289;28;20048;-71
2021/10/23 02:43:34;;;;;;;4.55;2.88;;;9.50;99.90;;;;;;5091133;28;20048;-71
2021/10/23 02:46:01;;;;;;;3.63;2.38;;;9.60;99.90;;;;;;5094378;28;20091;-71
2021/10/23 02:48:28;;;;;;;4.35;2.40;;;9.60;99.90;;;;;;5091726;28;20423;-71
2021/10/23 02:50:57;;;;;;;4.80;2.22;;;9.60;99.90;;;;;;5091947;28;20109;-72
2021/10/23 02:53:24;;;;;;;4.40;2.50;;;9.60;99.90;;;;;;5091091;28;20407;-71
2021/10/23 02:55:51;;;;;;;8.70;2.83;;;9.60;99.90;;;;;;5092391;28;20048;-70
2021/10/23 02:58:18;;;;;;;5.00;2.75;;;9.60;99.90;;;;;;5089903;28;20491;-70
2021/10/23 03:00:45;;;;;;;4.35;3.00;;;9.60;99.90;;;;;;5090096;28;20051;-71
2021/10/23 03:03:13;;;;;;;5.53;3.05;;;9.60;99.90;;;;;;5090494;28;20458;-71
2021/10/23 03:05:40;;;;;;;6.97;3.25;;;9.60;99.90;;;;;;5091383;28;20447;-72
2021/10/23 03:08:09;;;;;;;6.43;2.50;;;9.60;99.90;;;;;;5088723;28;20044;-71
2021/10/23 03:10:36;;;;;;;7.78;3.28;;;9.60;99.90;;;;;;5074405;28;20055;-71
2021/10/23 03:13:03;;;;;;;6.40;3.78;;;9.70;99.90;;;;;;5090321;28;20052;-71
2021/10/23 03:15:30;;;;;;;6.68;3.60;;;9.60;99.90;;;;;;5079933;28;20774;-70
2021/10/23 03:17:58;;;;;;;9.35;4.03;;;9.70;99.90;;;;;;5088653;28;20047;-70
2021/10/23 03:20:25;;;;;;;8.95;4.22;;;9.60;99.90;;;;;;5089015;28;20051;-71
2021/10/23 03:22:52;;;;;;;8.35;4.40;;;9.70;99.90;;;;;;5089179;28;20394;-70
2021/10/23 03:25:19;;;;;;;11.45;5.35;;;9.70;99.90;;;;;;5087918;28;20047;-70
2021/10/23 03:27:46;;;;;;;11.18;5.85;;;9.60;99.90;;;;;;5087627;28;20056;-71
2021/10/23 03:30:13;;;;;;;8.90;4.60;;;9.70;99.90;;;;;;5088731;28;20055;-72
2021/10/23 03:32:40;;;;;;;9.27;5.10;;;9.60;99.90;;;;;;5088578;28;20044;-72
2021/10/23 03:35:07;;;;;;;7.47;5.13;;;9.70;99.90;;;;;;5088933;28;20044;-71
2021/10/23 03:37:35;;;;;;;9.40;4.68;;;9.70;99.90;;;;;;5089751;28;20403;-70
2021/10/23 03:40:04;;;;;;;7.28;4.53;;;9.60;99.90;;;;;;5088300;28;20048;-71
2021/10/23 03:42:31;;;;;;;9.63;5.55;;;9.60;99.90;;;;;;5088093;28;20495;-71
2021/10/23 03:44:58;;;;;;;8.00;4.82;;;9.70;99.90;;;;;;5087844;28;20445;-70
2021/10/23 03:47:25;;;;;;;7.68;4.55;;;9.60;99.90;;;;;;5088897;28;20070;-70
2021/10/23 03:49:52;;;;;;;8.82;4.25;;;9.60;99.90;;;;;;5087825;28;20040;-71
2021/10/23 03:52:19;;;;;;;7.13;5.03;;;9.60;99.90;;;;;;5089516;28;20048;-70
2021/10/23 03:54:46;;;;;;;7.70;4.43;;;9.70;99.90;;;;;;5088121;28;20040;-71
2021/10/23 03:57:13;;;;;;;6.22;3.70;;;9.70;99.90;;;;;;5090057;28;20071;-71
2021/10/23 03:59:40;;;;;;;6.60;4.18;;;9.70;99.90;;;;;;5087879;28;20063;-71
2021/10/23 04:02:07;;;;;;;7.97;4.00;;;9.70;99.90;;;;;;5088989;28;20151;-71
2021/10/23 04:04:34;;;;;;;6.05;3.72;;;9.70;99.90;;;;;;5070915;28;20051;-70
2021/10/23 04:07:02;;;;;;;5.70;2.70;;;9.60;99.90;;;;;;5093906;28;20063;-71
2021/10/23 04:09:29;;;;;;;6.20;3.78;;;9.60;99.90;;;;;;5074492;28;20051;-72
2021/10/23 04:11:57;;;;;;;7.90;3.42;;;9.70;99.90;;;;;;5088010;28;20047;-71
2021/10/23 04:14:24;;;;;;;6.63;3.38;;;9.60;99.90;;;;;;5067984;28;20106;-71
2021/10/23 04:16:51;;;;;;;5.05;3.00;;;9.70;99.90;;;;;;5089482;28;20048;-71
2021/10/23 04:19:20;;;;;;;7.22;2.90;;;9.70;99.90;;;;;;5088882;28;20484;-72
2021/10/23 04:21:47;;;;;;;6.13;2.55;;;9.70;99.90;;;;;;5087478;28;20074;-72
2021/10/23 04:24:16;;;;;;;3.42;2.63;;;9.70;99.90;;;;;;5088050;28;20125;-72
2021/10/23 04:26:44;;;;;;;8.13;3.55;;;9.70;99.90;;;;;;5088657;28;20525;-72
2021/10/23 04:29:11;;;;;;;365.63;314.20;;;9.70;99.90;;;;;;5086957;28;20093;-70
2021/10/23 04:31:38;;;;;;;37.13;28.67;;;9.70;99.90;;;;;;5089014;28;20055;-72
2021/10/23 04:34:05;;;;;;;16.25;8.77;;;9.70;99.90;;;;;;5070924;28;20048;-70
2021/10/23 04:36:32;;;;;;;8.43;5.03;;;9.70;99.90;;;;;;5091669;28;20048;-71
2021/10/23 04:38:59;;;;;;;6.40;3.97;;;9.80;99.90;;;;;;5089360;28;20465;-73
2021/10/23 04:41:26;;;;;;;6.60;3.33;;;9.80;99.90;;;;;;5088429;28;20131;-70
2021/10/23 04:43:54;;;;;;;5.20;2.70;;;9.70;99.90;;;;;;5086768;28;20175;-71
2021/10/23 04:46:21;;;;;;;6.95;3.05;;;9.70;99.90;;;;;;5088393;28;20062;-71
2021/10/23 04:48:48;;;;;;;5.88;2.80;;;9.70;99.90;;;;;;5066930;28;20113;-71
2021/10/23 04:51:15;;;;;;;5.07;2.40;;;9.70;99.90;;;;;;5070764;28;20052;-71
2021/10/23 04:53:47;;;;;;;4.07;2.90;;;9.70;99.90;;;;;;5087113;28;20144;-72
2021/10/23 04:56:14;;;;;;;7.20;2.58;;;9.70;99.90;;;;;;5087477;28;20445;-71
2021/10/23 04:58:41;;;;;;;6.78;2.83;;;9.80;99.90;;;;;;5088736;28;20047;-72
2021/10/23 05:01:09;;;;;;;5.38;2.58;;;9.80;99.90;;;;;;5087974;28;20499;-71
2021/10/23 05:03:36;;;;;;;3.95;2.67;;;9.70;99.90;;;;;;5086647;28;20077;-70
2021/10/23 05:06:03;;;;;;;5.60;2.97;;;9.70;99.90;;;;;;5087152;28;20070;-71
2021/10/23 05:08:30;;;;;;;8.02;2.85;;;9.70;99.90;;;;;;5052019;28;20484;-71
2021/10/23 05:10:57;;;;;;;5.03;2.53;;;9.80;99.90;;;;;;5081838;28;20143;-71
2021/10/23 05:13:24;;;;;;;3.85;2.40;;;9.70;99.90;;;;;;5075441;28;20722;-71
2021/10/23 05:15:51;;;;;;;5.68;2.20;;;9.70;99.90;;;;;;5085305;28;20083;-71
2021/10/23 05:18:18;;;;;;;5.00;2.45;;;9.70;99.90;;;;;;5074581;28;20427;-72
2021/10/23 05:20:48;;;;;;;6.05;2.88;;;9.70;99.90;;;;;;5086717;28;20539;-71
2021/10/23 05:23:17;;;;;;;4.20;2.10;;;9.70;99.90;;;;;;5069546;28;20170;-70
2021/10/23 05:25:44;;;;;;;4.32;2.60;;;9.70;99.90;;;;;;5077233;28;20075;-72
2021/10/23 05:28:11;;;;;;;4.65;2.53;;;9.70;99.90;;;;;;5089073;28;20048;-70
2021/10/23 05:30:38;;;;;;;6.05;2.70;;;9.70;99.90;;;;;;5088647;28;20048;-70
2021/10/23 05:33:06;;;;;;;6.20;2.70;;;9.70;99.90;;;;;;5072297;28;20076;-70
2021/10/23 05:35:32;;;;;;;3.47;2.55;;;9.70;99.90;;;;;;5072191;28;20052;-70
2021/10/23 05:38:01;;;;;;;4.72;2.13;;;9.70;99.90;;;;;;5081677;28;20076;-71
2021/10/23 05:40:28;;;;;;;5.03;2.85;;;9.70;99.90;;;;;;5078357;28;20051;-71
2021/10/23 05:42:55;;;;;;;5.03;2.45;;;9.70;99.90;;;;;;5088619;28;20100;-70
2021/10/23 05:45:23;;;;;;;4.63;2.78;;;9.70;99.90;;;;;;5087309;28;20052;-72
2021/10/23 05:47:50;;;;;;;3.45;2.60;;;9.70;99.90;;;;;;5088159;28;20047;-70
2021/10/23 05:50:17;;;;;;;4.05;2.80;;;9.70;99.90;;;;;;5083212;28;20506;-70
2021/10/23 05:52:44;;;;;;;8.68;3.15;;;9.70;99.90;;;;;;5085950;28;20124;-71
2021/10/23 05:55:11;;;;;;;6.22;3.28;;;9.70;99.90;;;;;;5088148;28;20403;-71
2021/10/23 05:57:38;;;;;;;5.45;2.90;;;9.60;99.90;;;;;;5081046;28;20044;-72
2021/10/23 06:00:07;;;;;;;5.13;3.00;;;9.60;99.90;;;;;;5091132;28;20056;-71
2021/10/23 06:02:34;;;;;;;3.80;2.75;;;9.70;99.90;;;;;;5090494;28;20392;-72
2021/10/23 06:05:02;;;;;;;10.23;2.80;;;9.60;99.90;;;;;;5084768;28;20128;-71
2021/10/23 06:07:37;;;;;;;5.20;2.05;;;9.60;99.90;;;;;;5088186;28;20053;-70
2021/10/23 06:10:05;;;;;;;5.70;2.40;;;9.60;99.90;;;;;;5074638;28;20073;-71
2021/10/23 06:12:35;;;;;;;6.88;3.13;;;9.60;99.90;;;;;;5070769;28;20056;-70
2021/10/23 06:15:02;;;;;;;;;;;9.60;99.90;;;;;;5090857;28;20054;-71
2021/10/23 06:17:29;;;;;;;7.88;2.47;;;9.60;99.90;;;;;;5091398;28;19927;-72
2021/10/23 06:19:56;;;;;;;3.35;2.03;;;9.70;99.90;;;;;;5089608;28;20070;-71
2021/10/23 06:22:23;;;;;;;6.10;2.53;;;9.60;99.90;;;;;;5091655;28;20079;-70
2021/10/23 06:24:50;;;;;;;3.65;2.55;;;9.60;99.90;;;;;;5087742;28;20095;-71
2021/10/23 06:27:18;;;;;;;4.35;2.25;;;9.70;99.90;;;;;;5081477;28;20071;-70
2021/10/23 06:29:45;;;;;;;4.68;2.00;;;9.60;99.90;;;;;;5088990;28;20071;-70
2021/10/23 06:32:12;;;;;;;5.03;2.75;;;9.70;99.90;;;;;;5081812;28;20070;-71
2021/10/23 06:34:41;;;;;;;4.97;2.20;;;9.70;99.90;;;;;;5088163;28;20063;-72
2021/10/23 06:37:09;;;;;;;4.18;2.90;;;9.70;99.90;;;;;;5090457;28;20050;-72
2021/10/23 06:39:36;;;;;;;6.05;2.30;;;9.70;99.90;;;;;;5072991;28;20534;-71
2021/10/23 06:42:03;;;;;;;6.25;2.50;;;9.70;99.90;;;;;;5092299;28;20048;-71
2021/10/23 06:44:30;;;;;;;4.03;2.00;;;9.70;99.90;;;;;;5090423;28;20048;-71
2021/10/23 06:46:57;;;;;;;4.80;2.25;;;9.70;99.90;;;;;;5083436;28;20048;-71
2021/10/23 06:49:24;;;;;;;4.13;2.35;;;9.70;99.90;;;;;;5089694;28;20055;-70
2021/10/23 06:51:51;;;;;;;3.83;2.20;;;9.70;99.90;;;;;;5087311;28;20087;-71
2021/10/23 06:54:18;;;;;;;3.10;2.40;;;9.70;99.90;;;;;;5092354;28;20048;-72
2021/10/23 06:56:45;;;;;;;2.85;1.85;;;9.70;99.90;;;;;;5074090;28;20105;-71
2021/10/23 06:59:12;;;;;;;3.88;2.05;;;9.70;99.90;;;;;;5091141;28;20051;-70
2021/10/23 07:01:39;;;;;;;6.57;2.55;;;9.70;99.50;;;;;;5062031;28;20050;-71
2021/10/23 07:04:07;;;;;;;5.63;2.33;;;9.80;99.80;;;;;;5094048;28;20051;-70
2021/10/23 07:06:34;;;;;;;4.15;2.10;;;9.80;99.90;;;;;;5089181;28;20557;-71
2021/10/23 07:09:01;;;;;;;4.75;2.50;;;9.80;99.40;;;;;;5091498;28;20071;-71
2021/10/23 07:11:28;;;;;;;3.03;2.22;;;9.80;99.50;;;;;;5088256;28;20423;-70
2021/10/23 07:13:54;;;;;;;4.70;2.22;;;9.90;99.40;;;;;;5089989;28;20058;-71
2021/10/23 07:16:21;;;;;;;4.90;1.90;;;9.90;99.00;;;;;;5089843;28;20067;-71
2021/10/23 07:18:48;;;;;;;2.33;1.80;;;9.90;99.90;;;;;;5089457;28;20052;-72
2021/10/23 07:21:15;;;;;;;3.88;2.03;;;9.90;99.90;;;;;;5091525;28;20075;-71
2021/10/23 07:23:42;;;;;;;3.13;2.00;;;9.90;99.60;;;;;;5073275;28;20056;-71
2021/10/23 07:26:10;;;;;;;3.35;1.90;;;9.90;99.50;;;;;;5091918;28;20055;-70
2021/10/23 07:28:37;;;;;;;3.63;2.00;;;10.00;99.90;;;;;;5089916;28;20068;-71
2021/10/23 07:31:04;;;;;;;5.40;2.33;;;10.00;99.20;;;;;;5091600;28;20491;-71
2021/10/23 07:33:31;;;;;;;5.90;2.47;;;10.00;99.10;;;;;;5110672;28;20043;-71
2021/10/23 07:36:04;;;;;;;5.32;2.50;;;10.10;99.10;;;;;;5095587;28;20134;-71
2021/10/23 07:38:31;;;;;;;7.10;3.38;;;10.10;99.80;;;;;;5089868;28;20046;-71
2021/10/23 07:40:58;;;;;;;4.35;2.45;;;10.10;99.90;;;;;;5090823;28;20412;-72
2021/10/23 07:43:25;;;;;;;250.43;197.13;;;10.20;99.90;;;;;;5090504;28;20040;-70
2021/10/23 07:45:52;;;;;;;56.58;42.88;;;10.20;99.70;;;;;;5090055;28;20052;-71
2021/10/23 07:48:19;;;;;;;32.85;23.52;;;10.20;98.50;;;;;;5089289;28;20044;-72
2021/10/23 07:50:46;;;;;;;15.27;11.27;;;10.30;99.70;;;;;;5072311;28;20054;-71
2021/10/23 07:53:13;;;;;;;8.20;4.68;;;10.30;99.80;;;;;;5108772;28;20047;-71
2021/10/23 07:55:40;;;;;;;7.72;3.45;;;10.30;98.90;;;;;;5070371;28;20047;-71
2021/10/23 07:58:07;;;;;;;8.02;3.65;;;10.40;98.60;;;;;;5089466;28;20403;-72
2021/10/23 08:00:35;;;;;;;8.35;2.70;;;10.50;98.80;;;;;;5089844;28;20059;-71
2021/10/23 08:03:06;;;;;;;6.90;2.28;;;10.50;97.10;;;;;;5079343;28;20132;-71
2021/10/23 08:05:34;;;;;;;4.20;2.85;;;10.50;97.40;;;;;;5090668;28;20048;-71
2021/10/23 08:08:03;;;;;;;4.97;2.63;;;10.60;98.40;;;;;;5090397;28;20127;-72
2021/10/23 08:10:31;;;;;;;6.97;3.30;;;10.60;97.90;;;;;;5072023;28;20292;-71
2021/10/23 08:12:58;;;;;;;4.85;2.70;;;10.70;97.80;;;;;;5080570;28;20051;-73
2021/10/23 08:15:26;;;;;;;5.18;3.00;;;10.70;98.10;;;;;;5051711;28;20499;-72
2021/10/23 08:17:57;;;;;;;5.50;2.60;;;10.70;97.60;;;;;;5080632;28;20051;-71
2021/10/23 08:20:32;;;;;;;4.53;2.30;;;10.70;96.70;;;;;;5072265;28;20050;-71
2021/10/23 08:23:02;;;;;;;5.13;2.30;;;10.70;97.30;;;;;;5068924;28;20109;-71
2021/10/23 08:25:29;;;;;;;4.03;1.92;;;10.80;96.80;;;;;;5081901;28;20055;-71
2021/10/23 08:27:56;;;;;;;4.75;2.25;;;10.90;97.10;;;;;;5088641;28;20143;-71
2021/10/23 08:30:23;;;;;;;4.00;2.50;;;10.90;96.60;;;;;;5089743;28;20411;-70
2021/10/23 08:32:50;;;;;;;5.57;2.22;;;11.00;96.80;;;;;;5105615;28;20392;-70
2021/10/23 08:35:17;;;;;;;4.72;2.40;;;11.00;96.20;;;;;;5110008;28;20148;-73
2021/10/23 08:37:45;;;;;;;3.13;2.20;;;11.00;96.70;;;;;;5088067;28;20390;-72
2021/10/23 08:40:12;;;;;;;3.35;2.40;;;11.10;96.70;;;;;;5069684;28;20098;-70
2021/10/23 08:42:40;;;;;;;3.13;2.30;;;11.10;95.40;;;;;;5064531;28;20445;-70
2021/10/23 08:45:08;;;;;;;4.65;1.98;;;11.20;95.40;;;;;;5088920;28;20047;-71
2021/10/23 08:47:39;;;;;;;4.43;2.58;;;11.20;96.10;;;;;;5089100;28;20043;-70
2021/10/23 08:50:07;;;;;;;7.78;2.55;;;11.30;95.10;;;;;;5071647;28;20104;-72
2021/10/23 08:52:34;;;;;;;5.53;2.63;;;11.40;95.20;;;;;;5078620;28;20540;-73
2021/10/23 08:55:06;;;;;;;12.70;5.43;;;11.40;94.00;;;;;;5089429;28;20051;-74
2021/10/23 08:57:33;;;;;;;6.28;2.85;;;11.50;94.90;;;;;;5085654;28;20036;-72
2021/10/23 09:00:00;;;;;;;8.63;6.95;;;11.50;94.30;;;;;;5064227;28;20048;-73
2021/10/23 09:02:27;;;;;;;112.18;80.45;;;11.60;93.80;;;;;;5089521;28;20047;-72
2021/10/23 09:04:58;;;;;;;22.55;17.02;;;11.60;94.90;;;;;;5085447;28;20044;-73
2021/10/23 09:07:26;;;;;;;7.55;4.93;;;11.70;94.10;;;;;;5086286;28;20625;-71
2021/10/23 09:09:56;;;;;;;3.78;2.47;;;11.70;93.70;;;;;;5089476;28;20051;-70
2021/10/23 09:12:26;;;;;;;6.57;2.20;;;11.80;93.90;;;;;;5088435;28;20496;-70
2021/10/23 09:15:00;;;;;;;5.15;2.33;;;11.80;93.90;;;;;;5096506;28;20066;-70
2021/10/23 09:17:27;;;;;;;2.60;1.70;;;11.80;94.10;;;;;;5105996;28;20842;-70
2021/10/23 09:19:57;;;;;;;6.43;1.83;;;11.90;93.50;;;;;;5087197;28;20067;-70
2021/10/23 09:22:38;;;;;;;9.23;4.03;;;12.00;94.00;;;;;;5087018;28;20097;-75
2021/10/23 09:25:11;;;;;;;10.63;8.02;;;12.00;93.50;;;;;;5069493;28;20113;-75
2021/10/23 09:28:00;;;;;;;9.80;4.45;;;12.10;93.40;;;;;;5088726;28;20059;-77
2021/10/23 09:30:35;;;;;;;4.20;2.05;;;12.10;93.60;;;;;;5086509;28;20051;-77
2021/10/23 09:33:07;;;;;;;3.13;1.80;;;12.20;93.00;;;;;;5087874;28;20487;-75
2021/10/23 09:35:41;;;;;;;3.22;2.08;;;12.20;92.50;;;;;;5085763;28;20051;-72
2021/10/23 09:38:09;;;;;;;4.15;1.60;;;12.20;90.70;;;;;;5074836;28;20423;-79
2021/10/23 09:40:40;;;;;;;10.37;8.37;;;12.30;89.00;;;;;;5102244;28;20147;-74
2021/10/23 09:43:18;;;;;;;206.65;156.95;;;12.30;90.00;;;;;;5096639;28;20051;-75
2021/10/23 09:48:36;;;;;;;4.50;2.90;;;12.40;88.90;;;;;;5083618;28;20043;-75
2021/10/23 09:51:18;;;;;;;3.53;1.63;;;12.40;87.40;;;;;;5091316;28;20048;-75
2021/10/23 09:53:47;;;;;;;6.15;2.28;;;12.50;87.90;;;;;;5095616;28;20075;-74
2021/10/23 09:56:17;;;;;;;2.08;1.27;;;12.50;88.10;;;;;;5093279;28;20048;-75
2021/10/23 09:59:09;;;;;;;1.88;1.40;;;12.50;87.90;;;;;;5093284;28;20482;-74
2021/10/23 10:01:43;;;;;;;4.00;1.85;;;12.60;88.50;;;;;;5096919;28;20052;-74
2021/10/23 10:04:12;;;;;;;2.85;1.67;;;12.60;89.00;;;;;;5110465;28;20143;-75
2021/10/23 10:06:46;;;;;;;3.75;1.80;;;12.60;87.90;;;;;;5111264;28;20044;-74
2021/10/23 10:09:13;;;;;;;3.55;1.70;;;12.60;88.30;;;;;;5076255;28;20037;-70
2021/10/23 10:11:40;;;;;;;3.92;1.55;;;12.70;90.20;;;;;;5073294;28;20049;-76
2021/10/23 10:14:08;;;;;;;3.10;1.40;;;12.70;88.30;;;;;;5092209;28;20151;-75
2021/10/23 10:16:35;;;;;;;4.75;1.40;;;12.80;88.30;;;;;;5091989;28;20052;-76
2021/10/23 10:19:02;;;;;;;2.92;1.40;;;12.70;88.50;;;;;;5091632;28;20040;-75
2021/10/23 10:21:39;;;;;;;4.15;1.42;;;12.80;88.40;;;;;;5091008;28;20553;-75
2021/10/23 10:24:19;;;;;;;3.40;1.42;;;12.90;86.80;;;;;;5091587;28;20067;-76
2021/10/23 10:27:00;;;;;;;3.08;1.50;;;12.90;87.30;;;;;;5092495;28;20044;-75
2021/10/23 10:30:00;;;;;;;2.90;1.30;;;13.00;86.30;;;;;;5092530;28;20089;-73
2021/10/23 10:32:34;;;;;;;3.28;1.25;;;13.00;82.20;;;;;;5103492;28;20044;-75
2021/10/23 10:35:53;;;;;;;2.17;1.30;;;13.00;81.60;;;;;;5092860;28;20530;-75
2021/10/23 10:38:29;;;;;;;1.30;1.10;;;13.00;83.70;;;;;;5080440;28;20052;-75
2021/10/23 10:44:31;;;;;;;2.00;1.27;;;13.10;83.60;;;;;;5091960;28;20055;-75
2021/10/23 10:47:08;;;;;;;1.85;0.90;;;13.10;83.50;;;;;;4992621;28;20049;-75
2021/10/23 10:49:53;;;;;;;4.07;1.30;;;13.00;81.00;;;;;;5080120;28;20587;-75
2021/10/23 10:52:38;;;;;;;2.40;1.30;;;13.00;84.70;;;;;;5071415;28;20052;-69
2021/10/23 10:55:16;;;;;;;3.38;1.23;;;13.10;83.80;;;;;;5090982;28;20391;-69
2021/10/23 10:58:09;;;;;;;4.40;1.30;;;13.10;83.90;;;;;;5092035;28;20044;-69
2021/10/23 11:00:45;;;;;;;8.73;3.28;;;13.10;82.30;;;;;;5090315;28;20461;-68
2021/10/23 11:03:47;;;;;;;2.92;1.98;;;13.10;83.10;;;;;;5091511;28;20088;-69
2021/10/23 11:06:34;;;;;;;3.30;1.10;;;13.20;82.10;;;;;;5070109;28;20055;-69
2021/10/23 11:09:16;;;;;;;4.35;1.45;;;13.20;82.50;;;;;;5088874;28;20054;-68
2021/10/23 11:19:32;;;;;;;8.07;4.75;;;13.30;82.60;;;;;;5086444;28;20047;-69
2021/10/23 11:22:01;;;;;;;6.07;2.65;;;13.40;80.80;;;;;;5069082;28;20060;-69
2021/10/23 11:24:36;;;;;;;3.60;1.65;;;13.40;80.40;;;;;;5076354;28;20056;-69
2021/10/23 11:27:03;;;;;;;3.35;1.80;;;13.40;79.50;;;;;;5092835;28;20044;-70
2021/10/23 11:29:31;;;;;;;4.82;1.80;;;13.40;80.60;;;;;;5072179;28;20044;-69
2021/10/23 11:31:58;;;;;;;3.00;1.40;;;13.40;81.00;;;;;;5110428;28;20055;-69
2021/10/23 11:34:35;;;;;;;3.15;1.55;;;13.40;79.10;;;;;;5101241;28;20051;-67
2021/10/23 11:37:12;;;;;;;3.60;1.60;;;13.50;82.40;;;;;;5089743;28;20036;-67
2021/10/23 11:39:42;;;;;;;2.90;1.55;;;13.60;81.20;;;;;;5067849;28;20044;-68
2021/10/23 11:42:31;;;;;;;3.15;1.83;;;13.60;82.60;;;;;;5093655;28;20051;-67
2021/10/23 11:45:23;;;;;;;6.65;2.60;;;13.70;80.50;;;;;;5074360;28;20079;-64
2021/10/23 11:48:01;;;;;;;3.92;1.88;;;13.80;80.00;;;;;;5073977;28;20112;-68
2021/10/23 11:50:40;;;;;;;4.75;1.40;;;13.80;79.10;;;;;;5088581;28;20044;-68
2021/10/23 11:53:22;;;;;;;2.28;1.42;;;13.80;81.50;;;;;;5068546;28;20052;-62
2021/10/23 11:55:55;;;;;;;3.45;1.33;;;13.80;79.90;;;;;;5069652;28;20829;-68
2021/10/23 11:58:29;;;;;;;4.68;1.48;;;13.90;79.80;;;;;;5080648;28;20040;-67
2021/10/23 12:01:03;;;;;;;3.55;1.70;;;13.80;79.40;;;;;;5087830;28;20047;-68
2021/10/23 12:03:43;;;;;;;6.53;1.77;;;13.80;79.10;;;;;;5085818;28;20075;-79
2021/10/23 12:06:38;;;;;;;5.05;2.22;;;13.80;81.00;;;;;;5072125;28;20150;-70
2021/10/23 12:09:16;;;;;;;5.82;2.17;;;13.90;79.50;;;;;;5088495;28;20127;-69
2021/10/23 12:11:43;;;;;;;2.67;1.75;;;13.80;82.40;;;;;;5087027;28;20224;-67
2021/10/23 12:14:11;;;;;;;5.50;1.60;;;13.80;78.90;;;;;;5085285;28;20036;-72
2021/10/23 12:16:43;;;;;;;8.57;2.70;;;13.80;79.70;;;;;;5087711;28;20048;-69
2021/10/23 12:19:18;;;;;;;17.15;13.25;;;13.80;79.30;;;;;;5087482;28;20292;-70
2021/10/23 12:22:09;;;;;;;15.27;11.52;;;13.90;83.10;;;;;;5071033;28;20052;-68
2021/10/23 12:24:44;;;;;;;6.30;2.40;;;13.90;80.70;;;;;;5069030;28;20053;-69
2021/10/23 12:27:24;;;;;;;4.32;2.05;;;14.00;79.60;;;;;;5068237;28;20048;-69
2021/10/23 12:30:03;;;;;;;2.72;1.65;;;14.00;80.20;;;;;;5079512;28;20044;-69
2021/10/23 12:32:40;;;;;;;3.45;1.30;;;14.00;79.30;;;;;;5088679;28;20044;-68
2021/10/23 12:35:23;;;;;;;4.40;1.60;;;14.00;78.00;;;;;;5085467;28;20044;-70
2021/10/23 12:37:52;;;;;;;1.98;1.38;;;14.00;78.30;;;;;;5069672;28;20123;-68
2021/10/23 12:40:29;;;;;;;4.53;1.85;;;14.00;76.20;;;;;;5088178;28;20059;-68
2021/10/23 12:42:59;;;;;;;3.35;1.52;;;14.10;78.80;;;;;;5086653;28;20682;-68
2021/10/23 12:45:29;;;;;;;5.78;2.25;;;14.10;77.00;;;;;;5089209;28;20052;-69
2021/10/23 12:47:58;;;;;;;5.18;1.63;;;14.20;77.90;;;;;;5071291;28;20048;-69
2021/10/23 12:50:25;;;;;;;3.97;2.17;;;14.20;75.00;;;;;;5084095;28;20092;-69
2021/10/23 12:52:52;;;;;;;3.88;2.20;;;14.20;77.00;;;;;;5087098;28;20051;-69
2021/10/23 12:55:20;;;;;;;4.00;1.90;;;14.20;76.80;;;;;;5088920;28;20377;-69
2021/10/23 12:57:47;;;;;;;3.92;1.92;;;14.30;76.80;;;;;;5089369;28;20055;-69
2021/10/23 13:00:14;;;;;;;2.90;1.88;;;14.20;77.00;;;;;;5055167;28;20086;-68
2021/10/23 13:02:43;;;;;;;4.38;2.30;;;14.20;77.10;;;;;;5099890;28;20044;-70
2021/10/23 13:05:10;;;;;;;5.32;2.10;;;14.30;78.10;;;;;;5087558;28;20083;-70
2021/10/23 13:07:37;;;;;;;4.93;2.88;;;14.20;75.90;;;;;;5086478;28;20124;-69
2021/10/23 13:10:05;;;;;;;5.55;2.60;;;14.20;76.10;;;;;;5090678;28;20484;-68
2021/10/23 13:12:34;;;;;;;3.63;1.85;;;14.10;77.00;;;;;;5087291;28;20468;-65
2021/10/23 13:15:02;;;;;;;;;;;14.10;77.80;;;;;;5093970;28;20098;-67
2021/10/23 13:17:29;;;;;;;5.90;1.83;;;14.10;76.40;;;;;;5092325;28;19920;-67
2021/10/23 13:19:56;;;;;;;4.47;2.53;;;14.10;77.60;;;;;;5092721;28;20133;-67